sensor_id;sensor_type;location;lat;lon;timestamp;temperature;humidity
68476;DHT22;55464;48.266;14.188;2022-07-23T00:00:52;24.70;65.50
68476;DHT22;55464;48.266;14.188;2022-07-23T00:03:18;24.70;65.60
68476;DHT22;55464;48.266;14.188;2022-07-23T00:05:44;24.70;65.30
68476;DHT22;55464;48.266;14.188;2022-07-23T00:08:10;24.70;65.00
68476;DHT22;55464;48.266;14.188;2022-07-23T00:10:36;24.80;64.70
68476;DHT22;55464;48.266;14.188;2022-07-23T00:13:01;24.80;64.80
68476;DHT22;55464;48.266;14.188;2022-07-23T00:15:27;24.80;64.60
68476;DHT22;55464;48.266;14.188;2022-07-23T00:17:53;24.80;64.70
68476;DHT22;55464;48.266;14.188;2022-07-23T00:20:19;24.80;64.30
68476;DHT22;55464;48.266;14.188;2022-07-23T00:22:52;24.80;64.00
68476;DHT22;55464;48.266;14.188;2022-07-23T00:25:19;24.70;63.70
68476;DHT22;55464;48.266;14.188;2022-07-23T00:27:45;24.70;63.20
68476;DHT22;55464;48.266;14.188;2022-07-23T00:30:12;24.70;63.40
68476;DHT22;55464;48.266;14.188;2022-07-23T00:32:55;24.70;63.90
68476;DHT22;55464;48.266;14.188;2022-07-23T00:35:26;24.70;64.10
68476;DHT22;55464;48.266;14.188;2022-07-23T00:37:53;24.70;64.20
68476;DHT22;55464;48.266;14.188;2022-07-23T00:40:19;24.70;63.80
68476;DHT22;55464;48.266;14.188;2022-07-23T00:42:44;24.60;63.50
68476;DHT22;55464;48.266;14.188;2022-07-23T00:45:10;24.70;63.60
68476;DHT22;55464;48.266;14.188;2022-07-23T00:47:36;24.60;63.50
68476;DHT22;55464;48.266;14.188;2022-07-23T00:50:04;24.60;63.30
68476;DHT22;55464;48.266;14.188;2022-07-23T00:52:32;24.70;63.00
68476;DHT22;55464;48.266;14.188;2022-07-23T00:54:57;24.60;62.60
68476;DHT22;55464;48.266;14.188;2022-07-23T00:57:23;24.70;62.60
68476;DHT22;55464;48.266;14.188;2022-07-23T00:59:49;24.70;62.50
68476;DHT22;55464;48.266;14.188;2022-07-23T01:02:14;24.70;62.20
68476;DHT22;55464;48.266;14.188;2022-07-23T01:04:40;24.70;62.40
68476;DHT22;55464;48.266;14.188;2022-07-23T01:07:07;24.80;62.70
68476;DHT22;55464;48.266;14.188;2022-07-23T01:09:33;24.80;62.80
68476;DHT22;55464;48.266;14.188;2022-07-23T01:11:59;24.70;62.70
68476;DHT22;55464;48.266;14.188;2022-07-23T01:14:25;24.70;63.30
68476;DHT22;55464;48.266;14.188;2022-07-23T01:16:50;24.70;64.70
68476;DHT22;55464;48.266;14.188;2022-07-23T01:19:17;24.60;66.10
68476;DHT22;55464;48.266;14.188;2022-07-23T01:21:45;24.60;67.30
68476;DHT22;55464;48.266;14.188;2022-07-23T01:24:12;24.60;67.90
68476;DHT22;55464;48.266;14.188;2022-07-23T01:26:40;24.50;68.20
68476;DHT22;55464;48.266;14.188;2022-07-23T01:29:06;24.40;68.70
68476;DHT22;55464;48.266;14.188;2022-07-23T01:31:32;24.40;68.80
68476;DHT22;55464;48.266;14.188;2022-07-23T01:33:57;24.40;68.90
68476;DHT22;55464;48.266;14.188;2022-07-23T01:36:23;24.30;69.60
68476;DHT22;55464;48.266;14.188;2022-07-23T01:38:49;24.20;69.80
68476;DHT22;55464;48.266;14.188;2022-07-23T01:41:15;24.20;69.70
68476;DHT22;55464;48.266;14.188;2022-07-23T01:43:41;24.10;69.80
68476;DHT22;55464;48.266;14.188;2022-07-23T01:46:06;24.00;70.40
68476;DHT22;55464;48.266;14.188;2022-07-23T01:48:32;24.00;70.50
68476;DHT22;55464;48.266;14.188;2022-07-23T01:50:58;24.00;70.60
68476;DHT22;55464;48.266;14.188;2022-07-23T01:53:23;24.00;70.80
68476;DHT22;55464;48.266;14.188;2022-07-23T01:55:49;24.00;71.00
68476;DHT22;55464;48.266;14.188;2022-07-23T01:58:15;24.00;71.50
68476;DHT22;55464;48.266;14.188;2022-07-23T02:00:41;23.90;71.80
68476;DHT22;55464;48.266;14.188;2022-07-23T02:03:06;23.90;71.80
68476;DHT22;55464;48.266;14.188;2022-07-23T02:05:32;23.90;71.90
68476;DHT22;55464;48.266;14.188;2022-07-23T02:07:59;23.90;71.90
68476;DHT22;55464;48.266;14.188;2022-07-23T02:10:25;23.90;71.90
68476;DHT22;55464;48.266;14.188;2022-07-23T02:12:51;23.90;71.90
68476;DHT22;55464;48.266;14.188;2022-07-23T02:15:16;23.90;71.90
68476;DHT22;55464;48.266;14.188;2022-07-23T02:17:42;23.90;71.80
68476;DHT22;55464;48.266;14.188;2022-07-23T02:20:09;23.80;71.90
68476;DHT22;55464;48.266;14.188;2022-07-23T02:22:35;23.80;72.10
68476;DHT22;55464;48.266;14.188;2022-07-23T02:25:01;23.80;72.20
68476;DHT22;55464;48.266;14.188;2022-07-23T02:27:27;23.80;72.40
68476;DHT22;55464;48.266;14.188;2022-07-23T02:29:53;23.70;72.20
68476;DHT22;55464;48.266;14.188;2022-07-23T02:32:19;23.80;72.00
68476;DHT22;55464;48.266;14.188;2022-07-23T02:34:46;23.80;72.00
68476;DHT22;55464;48.266;14.188;2022-07-23T02:37:12;23.80;71.80
68476;DHT22;55464;48.266;14.188;2022-07-23T02:39:38;23.70;71.80
68476;DHT22;55464;48.266;14.188;2022-07-23T02:42:04;23.70;72.00
68476;DHT22;55464;48.266;14.188;2022-07-23T02:44:30;23.80;71.80
68476;DHT22;55464;48.266;14.188;2022-07-23T02:46:55;23.70;71.70
68476;DHT22;55464;48.266;14.188;2022-07-23T02:49:21;23.80;71.60
68476;DHT22;55464;48.266;14.188;2022-07-23T02:51:47;23.80;71.50
68476;DHT22;55464;48.266;14.188;2022-07-23T02:54:12;23.70;71.40
68476;DHT22;55464;48.266;14.188;2022-07-23T02:56:38;23.70;71.50
68476;DHT22;55464;48.266;14.188;2022-07-23T02:59:04;23.70;71.50
68476;DHT22;55464;48.266;14.188;2022-07-23T03:01:29;23.70;71.50
68476;DHT22;55464;48.266;14.188;2022-07-23T03:03:55;23.70;71.40
68476;DHT22;55464;48.266;14.188;2022-07-23T03:06:21;23.70;71.10
68476;DHT22;55464;48.266;14.188;2022-07-23T03:08:46;23.80;70.70
68476;DHT22;55464;48.266;14.188;2022-07-23T03:11:12;23.80;70.20
68476;DHT22;55464;48.266;14.188;2022-07-23T03:13:39;23.80;69.70
68476;DHT22;55464;48.266;14.188;2022-07-23T03:16:05;23.90;69.40
68476;DHT22;55464;48.266;14.188;2022-07-23T03:18:31;24.00;69.20
68476;DHT22;55464;48.266;14.188;2022-07-23T03:20:56;24.00;69.00
68476;DHT22;55464;48.266;14.188;2022-07-23T03:23:22;24.00;68.60
68476;DHT22;55464;48.266;14.188;2022-07-23T03:25:48;24.00;68.50
68476;DHT22;55464;48.266;14.188;2022-07-23T03:28:17;24.00;68.40
68476;DHT22;55464;48.266;14.188;2022-07-23T03:30:46;24.00;68.40
68476;DHT22;55464;48.266;14.188;2022-07-23T03:33:14;24.00;68.10
68476;DHT22;55464;48.266;14.188;2022-07-23T03:35:40;24.00;68.20
68476;DHT22;55464;48.266;14.188;2022-07-23T03:38:05;24.00;68.30
68476;DHT22;55464;48.266;14.188;2022-07-23T03:40:31;24.00;68.30
68476;DHT22;55464;48.266;14.188;2022-07-23T03:42:57;24.00;68.30
68476;DHT22;55464;48.266;14.188;2022-07-23T03:45:22;24.00;68.50
68476;DHT22;55464;48.266;14.188;2022-07-23T03:47:48;23.90;68.50
68476;DHT22;55464;48.266;14.188;2022-07-23T03:50:14;24.00;68.40
68476;DHT22;55464;48.266;14.188;2022-07-23T03:52:39;24.00;68.50
68476;DHT22;55464;48.266;14.188;2022-07-23T03:55:06;23.90;68.80
68476;DHT22;55464;48.266;14.188;2022-07-23T03:57:32;23.90;69.20
68476;DHT22;55464;48.266;14.188;2022-07-23T03:59:58;23.90;69.70
68476;DHT22;55464;48.266;14.188;2022-07-23T04:02:24;23.90;70.20
68476;DHT22;55464;48.266;14.188;2022-07-23T04:04:49;23.80;70.80
68476;DHT22;55464;48.266;14.188;2022-07-23T04:07:15;23.80;71.30
68476;DHT22;55464;48.266;14.188;2022-07-23T04:09:43;23.80;71.40
68476;DHT22;55464;48.266;14.188;2022-07-23T04:12:09;23.70;71.60
68476;DHT22;55464;48.266;14.188;2022-07-23T04:14:35;23.70;71.70
68476;DHT22;55464;48.266;14.188;2022-07-23T04:17:01;23.70;72.00
68476;DHT22;55464;48.266;14.188;2022-07-23T04:19:27;23.70;72.30
68476;DHT22;55464;48.266;14.188;2022-07-23T04:21:53;23.70;72.40
68476;DHT22;55464;48.266;14.188;2022-07-23T04:24:19;23.70;72.70
68476;DHT22;55464;48.266;14.188;2022-07-23T04:26:45;23.60;72.90
68476;DHT22;55464;48.266;14.188;2022-07-23T04:29:11;23.60;72.90
68476;DHT22;55464;48.266;14.188;2022-07-23T04:31:37;23.60;72.90
68476;DHT22;55464;48.266;14.188;2022-07-23T04:34:03;23.60;72.90
68476;DHT22;55464;48.266;14.188;2022-07-23T04:36:28;23.60;73.10
68476;DHT22;55464;48.266;14.188;2022-07-23T04:38:54;23.60;73.00
68476;DHT22;55464;48.266;14.188;2022-07-23T04:41:20;23.60;72.80
68476;DHT22;55464;48.266;14.188;2022-07-23T04:43:46;23.60;72.80
68476;DHT22;55464;48.266;14.188;2022-07-23T04:46:12;23.60;72.80
68476;DHT22;55464;48.266;14.188;2022-07-23T04:48:37;23.60;72.70
68476;DHT22;55464;48.266;14.188;2022-07-23T04:51:04;23.60;72.80
68476;DHT22;55464;48.266;14.188;2022-07-23T04:53:30;23.50;72.70
68476;DHT22;55464;48.266;14.188;2022-07-23T04:55:56;23.50;72.60
68476;DHT22;55464;48.266;14.188;2022-07-23T04:58:22;23.60;72.00
68476;DHT22;55464;48.266;14.188;2022-07-23T05:00:48;23.60;72.20
68476;DHT22;55464;48.266;14.188;2022-07-23T05:03:13;23.60;72.00
68476;DHT22;55464;48.266;14.188;2022-07-23T05:05:39;23.60;71.50
68476;DHT22;55464;48.266;14.188;2022-07-23T05:08:05;23.60;71.90
68476;DHT22;55464;48.266;14.188;2022-07-23T05:10:31;23.70;72.80
68476;DHT22;55464;48.266;14.188;2022-07-23T05:12:57;23.70;72.60
68476;DHT22;55464;48.266;14.188;2022-07-23T05:15:23;23.60;71.90
68476;DHT22;55464;48.266;14.188;2022-07-23T05:17:48;23.60;72.30
68476;DHT22;55464;48.266;14.188;2022-07-23T05:20:14;23.70;72.10
68476;DHT22;55464;48.266;14.188;2022-07-23T05:22:40;23.60;72.00
68476;DHT22;55464;48.266;14.188;2022-07-23T05:25:06;23.60;71.80
68476;DHT22;55464;48.266;14.188;2022-07-23T05:27:32;23.60;71.40
68476;DHT22;55464;48.266;14.188;2022-07-23T05:29:58;23.70;71.10
68476;DHT22;55464;48.266;14.188;2022-07-23T05:32:24;23.70;71.20
68476;DHT22;55464;48.266;14.188;2022-07-23T05:34:50;23.70;70.20
68476;DHT22;55464;48.266;14.188;2022-07-23T05:37:16;23.80;70.10
68476;DHT22;55464;48.266;14.188;2022-07-23T05:39:41;23.80;69.90
68476;DHT22;55464;48.266;14.188;2022-07-23T05:42:07;23.80;69.30
68476;DHT22;55464;48.266;14.188;2022-07-23T05:44:33;23.80;69.40
68476;DHT22;55464;48.266;14.188;2022-07-23T05:46:59;23.80;69.10
68476;DHT22;55464;48.266;14.188;2022-07-23T05:49:24;23.80;69.00
68476;DHT22;55464;48.266;14.188;2022-07-23T05:51:50;23.80;68.90
68476;DHT22;55464;48.266;14.188;2022-07-23T05:54:16;23.90;69.50
68476;DHT22;55464;48.266;14.188;2022-07-23T05:56:41;23.80;68.60
68476;DHT22;55464;48.266;14.188;2022-07-23T05:59:07;23.80;69.00
68476;DHT22;55464;48.266;14.188;2022-07-23T06:01:33;23.80;69.40
68476;DHT22;55464;48.266;14.188;2022-07-23T06:03:59;23.80;69.20
68476;DHT22;55464;48.266;14.188;2022-07-23T06:06:25;23.80;69.20
68476;DHT22;55464;48.266;14.188;2022-07-23T06:08:50;23.80;69.10
68476;DHT22;55464;48.266;14.188;2022-07-23T06:11:16;23.90;68.50
68476;DHT22;55464;48.266;14.188;2022-07-23T06:13:41;23.90;68.00
68476;DHT22;55464;48.266;14.188;2022-07-23T06:16:07;23.90;67.30
68476;DHT22;55464;48.266;14.188;2022-07-23T06:18:33;24.00;66.70
68476;DHT22;55464;48.266;14.188;2022-07-23T06:20:58;24.00;65.00
68476;DHT22;55464;48.266;14.188;2022-07-23T06:23:24;24.00;65.10
68476;DHT22;55464;48.266;14.188;2022-07-23T06:25:50;24.00;64.90
68476;DHT22;55464;48.266;14.188;2022-07-23T06:28:16;24.10;64.00
68476;DHT22;55464;48.266;14.188;2022-07-23T06:30:41;24.20;64.60
68476;DHT22;55464;48.266;14.188;2022-07-23T06:33:07;24.20;64.70
68476;DHT22;55464;48.266;14.188;2022-07-23T06:35:33;24.40;64.60
68476;DHT22;55464;48.266;14.188;2022-07-23T06:37:59;24.40;63.80
68476;DHT22;55464;48.266;14.188;2022-07-23T06:40:25;24.50;62.40
68476;DHT22;55464;48.266;14.188;2022-07-23T06:42:51;24.60;61.70
68476;DHT22;55464;48.266;14.188;2022-07-23T06:45:17;24.60;61.00
68476;DHT22;55464;48.266;14.188;2022-07-23T06:47:43;24.70;59.90
68476;DHT22;55464;48.266;14.188;2022-07-23T06:50:09;24.70;60.50
68476;DHT22;55464;48.266;14.188;2022-07-23T06:52:35;24.60;61.40
68476;DHT22;55464;48.266;14.188;2022-07-23T06:55:00;24.60;61.00
68476;DHT22;55464;48.266;14.188;2022-07-23T06:57:26;24.60;60.50
68476;DHT22;55464;48.266;14.188;2022-07-23T06:59:52;24.50;60.70
68476;DHT22;55464;48.266;14.188;2022-07-23T07:02:18;24.50;60.70
68476;DHT22;55464;48.266;14.188;2022-07-23T07:04:44;24.50;60.70
68476;DHT22;55464;48.266;14.188;2022-07-23T07:07:10;24.50;59.40
68476;DHT22;55464;48.266;14.188;2022-07-23T07:09:37;24.50;59.60
68476;DHT22;55464;48.266;14.188;2022-07-23T07:12:03;24.50;59.10
68476;DHT22;55464;48.266;14.188;2022-07-23T07:14:29;24.50;59.60
68476;DHT22;55464;48.266;14.188;2022-07-23T07:16:55;24.50;58.70
68476;DHT22;55464;48.266;14.188;2022-07-23T07:19:20;24.50;59.20
68476;DHT22;55464;48.266;14.188;2022-07-23T07:21:46;24.60;59.00
68476;DHT22;55464;48.266;14.188;2022-07-23T07:24:12;24.70;58.60
68476;DHT22;55464;48.266;14.188;2022-07-23T07:26:37;24.70;58.20
68476;DHT22;55464;48.266;14.188;2022-07-23T07:29:04;24.80;57.70
68476;DHT22;55464;48.266;14.188;2022-07-23T07:31:30;24.80;58.10
68476;DHT22;55464;48.266;14.188;2022-07-23T07:33:56;24.90;57.80
68476;DHT22;55464;48.266;14.188;2022-07-23T07:36:22;24.90;56.10
68476;DHT22;55464;48.266;14.188;2022-07-23T07:38:48;24.90;57.00
68476;DHT22;55464;48.266;14.188;2022-07-23T07:41:14;24.90;57.00
68476;DHT22;55464;48.266;14.188;2022-07-23T07:43:39;24.90;57.20
68476;DHT22;55464;48.266;14.188;2022-07-23T07:46:05;24.90;57.60
68476;DHT22;55464;48.266;14.188;2022-07-23T07:48:38;24.90;58.30
68476;DHT22;55464;48.266;14.188;2022-07-23T07:51:04;24.90;59.10
68476;DHT22;55464;48.266;14.188;2022-07-23T07:53:30;24.90;59.50
68476;DHT22;55464;48.266;14.188;2022-07-23T07:55:56;24.90;59.80
68476;DHT22;55464;48.266;14.188;2022-07-23T07:58:22;24.90;60.50
68476;DHT22;55464;48.266;14.188;2022-07-23T08:00:47;24.90;60.60
68476;DHT22;55464;48.266;14.188;2022-07-23T08:03:13;25.00;60.70
68476;DHT22;55464;48.266;14.188;2022-07-23T08:05:39;25.00;61.30
68476;DHT22;55464;48.266;14.188;2022-07-23T08:08:05;25.00;61.80
68476;DHT22;55464;48.266;14.188;2022-07-23T08:10:31;24.90;62.00
68476;DHT22;55464;48.266;14.188;2022-07-23T08:12:58;24.90;62.10
68476;DHT22;55464;48.266;14.188;2022-07-23T08:15:26;25.00;62.20
68476;DHT22;55464;48.266;14.188;2022-07-23T08:17:52;25.00;62.10
68476;DHT22;55464;48.266;14.188;2022-07-23T08:20:20;25.00;62.40
68476;DHT22;55464;48.266;14.188;2022-07-23T08:23:02;24.90;62.80
68476;DHT22;55464;48.266;14.188;2022-07-23T08:27:56;25.00;63.30
68476;DHT22;55464;48.266;14.188;2022-07-23T08:30:22;25.00;63.40
68476;DHT22;55464;48.266;14.188;2022-07-23T08:33:00;25.00;63.40
68476;DHT22;55464;48.266;14.188;2022-07-23T08:35:42;25.00;63.40
68476;DHT22;55464;48.266;14.188;2022-07-23T08:38:10;25.00;63.70
68476;DHT22;55464;48.266;14.188;2022-07-23T08:40:38;25.00;63.60
68476;DHT22;55464;48.266;14.188;2022-07-23T08:43:14;25.00;63.50
68476;DHT22;55464;48.266;14.188;2022-07-23T08:45:44;25.00;63.60
68476;DHT22;55464;48.266;14.188;2022-07-23T08:48:16;25.00;63.30
68476;DHT22;55464;48.266;14.188;2022-07-23T08:50:44;25.10;63.20
68476;DHT22;55464;48.266;14.188;2022-07-23T08:53:10;25.10;63.20
68476;DHT22;55464;48.266;14.188;2022-07-23T08:55:36;25.10;63.90
68476;DHT22;55464;48.266;14.188;2022-07-23T08:58:02;25.20;63.80
68476;DHT22;55464;48.266;14.188;2022-07-23T09:00:28;25.20;63.10
68476;DHT22;55464;48.266;14.188;2022-07-23T09:02:54;25.30;62.80
68476;DHT22;55464;48.266;14.188;2022-07-23T09:05:20;25.20;62.60
68476;DHT22;55464;48.266;14.188;2022-07-23T09:08:15;25.20;62.30
68476;DHT22;55464;48.266;14.188;2022-07-23T09:10:55;25.30;62.20
68476;DHT22;55464;48.266;14.188;2022-07-23T09:13:57;25.30;61.80
68476;DHT22;55464;48.266;14.188;2022-07-23T09:16:28;25.30;61.40
68476;DHT22;55464;48.266;14.188;2022-07-23T09:19:03;25.20;61.30
68476;DHT22;55464;48.266;14.188;2022-07-23T09:21:34;25.20;61.50
68476;DHT22;55464;48.266;14.188;2022-07-23T09:24:08;25.30;61.40
68476;DHT22;55464;48.266;14.188;2022-07-23T09:31:50;25.30;62.70
68476;DHT22;55464;48.266;14.188;2022-07-23T09:34:23;25.30;63.20
68476;DHT22;55464;48.266;14.188;2022-07-23T09:36:54;25.30;63.50
68476;DHT22;55464;48.266;14.188;2022-07-23T09:39:32;25.40;62.90
68476;DHT22;55464;48.266;14.188;2022-07-23T09:42:15;25.40;62.30
68476;DHT22;55464;48.266;14.188;2022-07-23T09:44:46;25.40;61.50
68476;DHT22;55464;48.266;14.188;2022-07-23T09:47:12;25.30;60.50
68476;DHT22;55464;48.266;14.188;2022-07-23T09:49:38;25.30;60.30
68476;DHT22;55464;48.266;14.188;2022-07-23T09:52:04;25.30;60.40
68476;DHT22;55464;48.266;14.188;2022-07-23T09:54:39;25.40;60.20
68476;DHT22;55464;48.266;14.188;2022-07-23T09:57:12;25.40;60.00
68476;DHT22;55464;48.266;14.188;2022-07-23T09:59:42;25.40;60.10
68476;DHT22;55464;48.266;14.188;2022-07-23T10:02:10;25.40;59.90
68476;DHT22;55464;48.266;14.188;2022-07-23T10:04:36;25.40;59.80
68476;DHT22;55464;48.266;14.188;2022-07-23T10:07:05;25.40;60.10
68476;DHT22;55464;48.266;14.188;2022-07-23T10:09:35;25.40;59.60
68476;DHT22;55464;48.266;14.188;2022-07-23T10:12:12;25.40;59.50
68476;DHT22;55464;48.266;14.188;2022-07-23T10:14:41;25.50;59.20
68476;DHT22;55464;48.266;14.188;2022-07-23T10:17:07;25.50;59.20
68476;DHT22;55464;48.266;14.188;2022-07-23T10:19:33;25.50;59.50
68476;DHT22;55464;48.266;14.188;2022-07-23T10:22:02;25.50;59.20
68476;DHT22;55464;48.266;14.188;2022-07-23T10:35:07;25.50;58.80
68476;DHT22;55464;48.266;14.188;2022-07-23T10:37:47;25.50;58.90
68476;DHT22;55464;48.266;14.188;2022-07-23T10:40:16;25.60;58.20
68476;DHT22;55464;48.266;14.188;2022-07-23T10:42:43;25.60;57.70
68476;DHT22;55464;48.266;14.188;2022-07-23T10:45:35;25.60;57.00
68476;DHT22;55464;48.266;14.188;2022-07-23T10:48:22;25.60;56.80
68476;DHT22;55464;48.266;14.188;2022-07-23T10:51:14;25.60;57.20
68476;DHT22;55464;48.266;14.188;2022-07-23T10:56:15;25.60;57.10
68476;DHT22;55464;48.266;14.188;2022-07-23T10:58:46;25.60;56.80
68476;DHT22;55464;48.266;14.188;2022-07-23T11:01:34;25.70;56.50
68476;DHT22;55464;48.266;14.188;2022-07-23T11:04:00;25.70;56.80
68476;DHT22;55464;48.266;14.188;2022-07-23T11:09:39;25.80;55.00
68476;DHT22;55464;48.266;14.188;2022-07-23T11:15:06;25.80;55.30
68476;DHT22;55464;48.266;14.188;2022-07-23T11:20:22;26.00;54.60
68476;DHT22;55464;48.266;14.188;2022-07-23T11:22:57;25.90;55.70
68476;DHT22;55464;48.266;14.188;2022-07-23T11:27:50;26.00;56.60
68476;DHT22;55464;48.266;14.188;2022-07-23T11:32:52;26.10;56.30
68476;DHT22;55464;48.266;14.188;2022-07-23T11:35:23;26.20;57.30
68476;DHT22;55464;48.266;14.188;2022-07-23T11:37:52;26.20;56.40
68476;DHT22;55464;48.266;14.188;2022-07-23T11:40:19;26.30;55.30
68476;DHT22;55464;48.266;14.188;2022-07-23T11:43:08;26.30;55.80
68476;DHT22;55464;48.266;14.188;2022-07-23T11:45:40;26.20;55.90
68476;DHT22;55464;48.266;14.188;2022-07-23T11:48:08;26.20;56.10
68476;DHT22;55464;48.266;14.188;2022-07-23T11:50:35;26.30;55.30
68476;DHT22;55464;48.266;14.188;2022-07-23T11:53:01;26.30;55.80
68476;DHT22;55464;48.266;14.188;2022-07-23T11:55:27;26.30;55.90
68476;DHT22;55464;48.266;14.188;2022-07-23T11:57:55;26.40;56.60
68476;DHT22;55464;48.266;14.188;2022-07-23T12:00:27;26.30;57.20
68476;DHT22;55464;48.266;14.188;2022-07-23T12:02:56;26.40;57.10
68476;DHT22;55464;48.266;14.188;2022-07-23T12:05:32;26.40;55.90
68476;DHT22;55464;48.266;14.188;2022-07-23T12:07:59;26.50;55.10
68476;DHT22;55464;48.266;14.188;2022-07-23T12:10:27;26.50;55.10
68476;DHT22;55464;48.266;14.188;2022-07-23T12:13:02;26.50;55.20
68476;DHT22;55464;48.266;14.188;2022-07-23T12:15:34;26.50;55.40
68476;DHT22;55464;48.266;14.188;2022-07-23T12:18:03;26.60;54.90
68476;DHT22;55464;48.266;14.188;2022-07-23T12:20:35;26.60;54.90
68476;DHT22;55464;48.266;14.188;2022-07-23T12:23:04;26.70;54.30
68476;DHT22;55464;48.266;14.188;2022-07-23T12:25:32;26.80;53.40
68476;DHT22;55464;48.266;14.188;2022-07-23T12:28:01;26.90;53.90
68476;DHT22;55464;48.266;14.188;2022-07-23T12:30:30;27.00;53.10
68476;DHT22;55464;48.266;14.188;2022-07-23T12:32:57;27.00;53.20
68476;DHT22;55464;48.266;14.188;2022-07-23T12:35:33;27.00;53.40
68476;DHT22;55464;48.266;14.188;2022-07-23T12:38:02;27.00;54.40
68476;DHT22;55464;48.266;14.188;2022-07-23T12:43:02;27.00;52.70
68476;DHT22;55464;48.266;14.188;2022-07-23T12:45:45;27.20;50.50
68476;DHT22;55464;48.266;14.188;2022-07-23T12:53:47;27.30;49.90
68476;DHT22;55464;48.266;14.188;2022-07-23T12:56:20;27.20;50.50
68476;DHT22;55464;48.266;14.188;2022-07-23T12:59:07;27.20;51.10
68476;DHT22;55464;48.266;14.188;2022-07-23T13:01:54;27.40;50.30
68476;DHT22;55464;48.266;14.188;2022-07-23T13:04:21;27.50;50.20
68476;DHT22;55464;48.266;14.188;2022-07-23T13:06:52;27.50;51.60
68476;DHT22;55464;48.266;14.188;2022-07-23T13:09:21;27.50;51.50
68476;DHT22;55464;48.266;14.188;2022-07-23T13:11:48;27.50;52.10
68476;DHT22;55464;48.266;14.188;2022-07-23T13:14:15;27.70;51.60
68476;DHT22;55464;48.266;14.188;2022-07-23T13:16:41;27.80;51.00
68476;DHT22;55464;48.266;14.188;2022-07-23T13:19:07;27.90;51.00
68476;DHT22;55464;48.266;14.188;2022-07-23T13:21:33;28.00;50.30
68476;DHT22;55464;48.266;14.188;2022-07-23T13:23:59;28.00;50.40
68476;DHT22;55464;48.266;14.188;2022-07-23T13:26:25;27.90;50.60
68476;DHT22;55464;48.266;14.188;2022-07-23T13:28:51;27.90;51.20
68476;DHT22;55464;48.266;14.188;2022-07-23T13:31:17;28.00;51.30
68476;DHT22;55464;48.266;14.188;2022-07-23T13:33:42;28.00;51.90
68476;DHT22;55464;48.266;14.188;2022-07-23T13:36:08;28.00;52.00
68476;DHT22;55464;48.266;14.188;2022-07-23T13:38:34;28.10;50.70
68476;DHT22;55464;48.266;14.188;2022-07-23T13:41:00;28.30;49.90
68476;DHT22;55464;48.266;14.188;2022-07-23T13:43:26;28.40;50.50
68476;DHT22;55464;48.266;14.188;2022-07-23T13:45:52;28.40;49.30
68476;DHT22;55464;48.266;14.188;2022-07-23T13:48:19;28.20;50.10
68476;DHT22;55464;48.266;14.188;2022-07-23T13:50:47;28.10;50.30
68476;DHT22;55464;48.266;14.188;2022-07-23T13:53:18;28.00;50.90
68476;DHT22;55464;48.266;14.188;2022-07-23T13:55:46;27.80;51.80
68476;DHT22;55464;48.266;14.188;2022-07-23T13:58:12;27.70;52.10
68476;DHT22;55464;48.266;14.188;2022-07-23T14:00:41;27.70;52.10
68476;DHT22;55464;48.266;14.188;2022-07-23T14:03:08;27.70;51.90
68476;DHT22;55464;48.266;14.188;2022-07-23T14:05:34;27.60;52.00
68476;DHT22;55464;48.266;14.188;2022-07-23T14:07:59;27.60;51.80
68476;DHT22;55464;48.266;14.188;2022-07-23T14:10:25;27.50;51.70
68476;DHT22;55464;48.266;14.188;2022-07-23T14:12:52;27.50;52.50
68476;DHT22;55464;48.266;14.188;2022-07-23T14:15:26;27.40;52.60
68476;DHT22;55464;48.266;14.188;2022-07-23T14:17:53;27.40;52.80
68476;DHT22;55464;48.266;14.188;2022-07-23T14:20:18;27.30;53.00
68476;DHT22;55464;48.266;14.188;2022-07-23T14:22:44;27.30;53.60
68476;DHT22;55464;48.266;14.188;2022-07-23T14:25:10;27.20;53.40
68476;DHT22;55464;48.266;14.188;2022-07-23T14:27:37;27.30;53.60
68476;DHT22;55464;48.266;14.188;2022-07-23T14:30:04;27.30;53.20
68476;DHT22;55464;48.266;14.188;2022-07-23T14:32:31;27.20;53.10
68476;DHT22;55464;48.266;14.188;2022-07-23T14:34:56;27.20;53.90
68476;DHT22;55464;48.266;14.188;2022-07-23T14:37:22;27.20;54.10
68476;DHT22;55464;48.266;14.188;2022-07-23T14:39:48;27.20;53.80
68476;DHT22;55464;48.266;14.188;2022-07-23T14:42:13;27.20;53.30
68476;DHT22;55464;48.266;14.188;2022-07-23T14:44:39;27.20;53.20
68476;DHT22;55464;48.266;14.188;2022-07-23T14:47:06;27.20;52.90
68476;DHT22;55464;48.266;14.188;2022-07-23T14:49:32;27.20;52.50
68476;DHT22;55464;48.266;14.188;2022-07-23T14:51:58;27.20;52.10
68476;DHT22;55464;48.266;14.188;2022-07-23T14:54:25;27.20;51.20
68476;DHT22;55464;48.266;14.188;2022-07-23T14:56:52;27.20;50.40
68476;DHT22;55464;48.266;14.188;2022-07-23T14:59:18;27.20;49.70
68476;DHT22;55464;48.266;14.188;2022-07-23T15:01:44;27.20;49.60
68476;DHT22;55464;48.266;14.188;2022-07-23T15:04:10;27.10;50.10
68476;DHT22;55464;48.266;14.188;2022-07-23T15:06:36;27.10;50.90
68476;DHT22;55464;48.266;14.188;2022-07-23T15:09:02;27.10;51.20
68476;DHT22;55464;48.266;14.188;2022-07-23T15:11:28;27.10;51.20
68476;DHT22;55464;48.266;14.188;2022-07-23T15:13:57;27.00;51.10
68476;DHT22;55464;48.266;14.188;2022-07-23T15:16:23;27.00;50.80
68476;DHT22;55464;48.266;14.188;2022-07-23T15:18:49;27.00;51.10
68476;DHT22;55464;48.266;14.188;2022-07-23T15:21:14;27.00;51.40
68476;DHT22;55464;48.266;14.188;2022-07-23T15:23:40;26.90;51.90
68476;DHT22;55464;48.266;14.188;2022-07-23T15:26:07;26.90;52.10
68476;DHT22;55464;48.266;14.188;2022-07-23T15:28:34;26.90;52.70
68476;DHT22;55464;48.266;14.188;2022-07-23T15:31:01;26.90;52.80
68476;DHT22;55464;48.266;14.188;2022-07-23T15:33:26;26.90;53.00
68476;DHT22;55464;48.266;14.188;2022-07-23T15:35:52;26.80;53.30
68476;DHT22;55464;48.266;14.188;2022-07-23T15:38:20;26.80;53.70
68476;DHT22;55464;48.266;14.188;2022-07-23T15:40:46;26.70;54.30
68476;DHT22;55464;48.266;14.188;2022-07-23T15:43:12;26.80;54.70
68476;DHT22;55464;48.266;14.188;2022-07-23T15:45:39;26.80;54.50
68476;DHT22;55464;48.266;14.188;2022-07-23T15:48:05;26.80;54.30
68476;DHT22;55464;48.266;14.188;2022-07-23T15:50:31;26.80;54.30
68476;DHT22;55464;48.266;14.188;2022-07-23T15:52:57;26.70;54.10
68476;DHT22;55464;48.266;14.188;2022-07-23T15:55:23;26.80;53.90
68476;DHT22;55464;48.266;14.188;2022-07-23T15:57:49;26.70;53.90
68476;DHT22;55464;48.266;14.188;2022-07-23T16:00:15;26.70;54.00